Zapala, Argentina
Current Conditions -  °F | °C
As of 11:00 PM on Saturday 22 Nov 2014 (Local Time) from SAZN Reporting Station
Clear Clear  
Wind Chill: 70°   Ceiling: Unl
Heat Index: 70°   Visibility: 6mi
Dew Point: 28°   Wind: 2mph
Humidity: 21%   Direction: 250°WSW
Pressure: 29.8"   Gusts: NA
Location:  38.9°S, 70.07°W
Report Text: SAZN 230200Z 25002KT CAVOK 21/M02 Q1009
Loading
Personal Weather Stations






























Interactive Weather Map New forecast layout! Learn more

10-Day Weather Forecast

Advertisements
Track Severe Weather on mobile